Terminal Aerodrome Forecast
Issued by NWS

Current Version | Previous Version | Text Only | Print | Product List | Glossary On
Versions: 1 2 3 4 5 6 7 8 9 10 11 12 13 14 15 16 17 18 19 20 21 22
035
FTUS41 KCAR 242320
TAFFVE
TAF
KFVE 242320Z 2500/2524 19012KT P6SM OVC025
     FM250400 27006KT P6SM BKN035
     FM251200 33014G24KT P6SM SCT150 BKN250=

USA.gov is the U.S. government's official web portal to all federal, state and local government web resources and services.